createdAt,value
2023-05-15T00:00:01.443Z,167.68
2023-05-15T00:05:01.598Z,161.91
2023-05-15T00:10:01.514Z,157.477
2023-05-15T00:15:01.625Z,200.623
2023-05-15T00:20:01.362Z,277.307
2023-05-15T00:25:01.409Z,270.064
2023-05-15T00:30:01.407Z,247.222
2023-05-15T00:35:01.411Z,157.173
2023-05-15T00:40:01.467Z,157.143
2023-05-15T00:45:01.442Z,159.5
2023-05-15T00:50:01.658Z,183.62
2023-05-15T00:55:01.602Z,182.33700000000002
2023-05-15T01:00:01.498Z,198.156
2023-05-15T01:05:01.490Z,312.834
2023-05-15T01:10:01.587Z,305.952
2023-05-15T01:15:01.618Z,302.838
2023-05-15T01:20:01.534Z,186.54500000000002
2023-05-15T01:25:01.475Z,181.848
2023-05-15T01:30:01.469Z,181.653
2023-05-15T01:35:01.553Z,181.276
2023-05-15T01:40:01.476Z,157.602
2023-05-15T01:45:01.493Z,156.809
2023-05-15T01:50:01.594Z,262.961
2023-05-15T01:55:01.479Z,279.346
2023-05-15T02:00:01.498Z,275.084
2023-05-15T02:05:01.506Z,183.205
2023-05-15T02:10:01.576Z,164.804
2023-05-15T02:15:01.655Z,164.513
2023-05-15T02:20:01.694Z,167.657
2023-05-15T02:25:01.721Z,188.304
2023-05-15T02:30:01.552Z,186.93200000000002
2023-05-15T02:35:01.507Z,279.954
2023-05-15T02:40:01.519Z,301.259
2023-05-15T02:45:01.508Z,299.208
2023-05-15T02:50:01.637Z,241.028
2023-05-15T02:55:01.542Z,196.68800000000002
2023-05-15T03:00:01.568Z,178.768
2023-05-15T03:05:01.511Z,160.234
2023-05-15T03:10:01.520Z,158.942
2023-05-15T03:15:01.676Z,173.92600000000002
2023-05-15T03:20:01.708Z,250.516
2023-05-15T03:25:01.670Z,301.547
2023-05-15T03:30:01.753Z,295.017
2023-05-15T03:35:01.541Z,247.711
2023-05-15T03:40:01.618Z,169.52100000000002
2023-05-15T03:45:01.909Z,161.495
2023-05-15T03:50:01.720Z,161.82
2023-05-15T03:55:01.635Z,162.615
2023-05-15T04:00:01.599Z,162.28900000000002
2023-05-15T04:05:01.598Z,213.304
2023-05-15T04:10:01.672Z,281.676
2023-05-15T04:15:01.601Z,274.163
2023-05-15T04:20:01.648Z,242.737
2023-05-15T04:25:01.679Z,161.496
2023-05-15T04:30:01.716Z,174.519
2023-05-15T04:35:01.721Z,187.683
2023-05-15T04:40:01.730Z,187.05
2023-05-15T04:45:01.829Z,185.973
2023-05-15T04:50:01.685Z,205.198
2023-05-15T04:55:01.652Z,315.024
2023-05-15T05:00:01.633Z,338.047
2023-05-15T05:05:01.638Z,2670.5750000000003
2023-05-15T05:10:01.702Z,2927.901
2023-05-15T05:15:01.642Z,1910.506
2023-05-15T05:20:01.673Z,689.863
2023-05-15T05:25:01.692Z,1843.272
2023-05-15T05:30:01.693Z,309.921
2023-05-15T05:35:01.680Z,197.858
2023-05-15T05:40:01.845Z,309.322
2023-05-15T05:45:01.849Z,324.838
2023-05-15T05:50:01.905Z,284.772
2023-05-15T05:55:01.708Z,185.788
2023-05-15T06:00:10.426Z,169.475
2023-05-15T06:05:01.731Z,166.80700000000002
2023-05-15T06:10:01.730Z,166.183
2023-05-15T06:15:01.710Z,165.69400000000002
2023-05-15T06:20:01.799Z,166.53900000000002
2023-05-15T06:25:01.703Z,255.982
2023-05-15T06:30:01.810Z,279.817
2023-05-15T06:35:01.729Z,286.05400000000003
2023-05-15T06:40:01.761Z,270.799
2023-05-15T06:45:01.744Z,204.721
2023-05-15T06:50:01.784Z,206.001
2023-05-15T06:55:01.937Z,196.046
2023-05-15T07:00:01.963Z,190.235
2023-05-15T07:05:01.887Z,192.089
2023-05-15T07:10:01.997Z,222.048
2023-05-15T07:15:01.770Z,312.472
2023-05-15T07:20:01.808Z,296.635
2023-05-15T07:25:01.831Z,244.519
2023-05-15T07:30:01.787Z,168.941
2023-05-15T07:35:01.799Z,168.669
2023-05-15T07:40:01.772Z,168.638
2023-05-15T07:45:01.932Z,168.53300000000002
2023-05-15T07:50:01.818Z,168.836
2023-05-15T07:55:01.832Z,184
2023-05-15T08:00:01.830Z,290.23
2023-05-15T08:05:02.126Z,279.081
2023-05-15T08:10:01.976Z,297.72700000000003
2023-05-15T08:15:01.790Z,192.725
2023-05-15T08:20:01.837Z,188.614
2023-05-15T08:25:01.887Z,194.779
2023-05-15T08:30:01.807Z,202.958
2023-05-15T08:35:01.830Z,207.4
2023-05-15T08:40:01.880Z,208.72400000000002
2023-05-15T08:45:02.010Z,302.892
2023-05-15T08:50:01.932Z,288.065
2023-05-15T08:55:01.882Z,280.69100000000003
2023-05-15T09:00:01.956Z,232.715
2023-05-15T09:05:02.049Z,198.969
2023-05-15T09:10:01.965Z,196.928
2023-05-15T09:15:01.887Z,193.447
2023-05-15T09:20:01.885Z,194.047
2023-05-15T09:25:01.895Z,175.379
2023-05-15T09:30:01.916Z,797.343
2023-05-15T09:35:01.995Z,2969.969
2023-05-15T09:40:01.944Z,2909.3340000000003
2023-05-15T09:45:01.916Z,233.08100000000002
2023-05-15T09:50:01.999Z,168.492
2023-05-15T09:55:02.167Z,173.989
2023-05-15T10:00:01.868Z,177.653
2023-05-15T10:05:01.948Z,175.394
2023-05-15T10:10:01.961Z,184.625
2023-05-15T10:15:01.983Z,239.346
2023-05-15T10:20:01.955Z,320.335
2023-05-15T10:25:01.997Z,309.702
2023-05-15T10:30:01.927Z,307.654
2023-05-15T10:35:01.968Z,201.782
2023-05-15T10:40:02.085Z,211.637
2023-05-15T10:45:02.123Z,203.945
2023-05-15T10:50:01.934Z,203.078
2023-05-15T10:55:01.956Z,202.562
2023-05-15T11:00:02.064Z,202.811
2023-05-15T11:05:02.011Z,289.35200000000003
2023-05-15T11:10:02.759Z,292.584
2023-05-15T11:15:02.025Z,285.36
2023-05-15T11:20:02.048Z,195.014
2023-05-15T11:25:02.124Z,177.686
2023-05-15T11:30:02.139Z,179.177
2023-05-15T11:35:02.014Z,172.17000000000002
2023-05-15T11:40:02.030Z,176.359
2023-05-15T11:45:02.011Z,181.876
2023-05-15T11:50:02.054Z,277.719
2023-05-15T11:55:02.011Z,308.187
2023-05-15T12:00:02.029Z,300.923
2023-05-15T12:05:02.246Z,249.99800000000002
2023-05-15T12:25:02.081Z,193.858
2023-05-15T12:30:02.034Z,164.921
2023-05-15T12:35:02.085Z,208.143
2023-05-15T12:40:02.167Z,303.639
2023-05-15T12:45:02.223Z,302.47700000000003
2023-05-15T12:50:15.367Z,286.592
2023-05-15T12:55:02.091Z,197.615
2023-05-15T13:00:02.099Z,188.058
2023-05-15T13:05:02.113Z,173.888
2023-05-15T13:10:04.799Z,162.696
2023-05-15T13:15:04.918Z,161.864
2023-05-15T13:20:12.559Z,162.321
2023-05-15T13:25:04.723Z,284.96
2023-05-15T13:30:04.835Z,284.25
2023-05-15T13:35:04.786Z,285.237
2023-05-15T13:40:04.844Z,192.57500000000002
2023-05-15T13:45:04.804Z,171.148
2023-05-15T13:50:20.964Z,176.079
2023-05-15T13:55:04.847Z,216.971
2023-05-15T14:00:05.440Z,226.452
2023-05-15T14:05:04.959Z,215.298
2023-05-15T14:10:04.813Z,281.982
2023-05-15T14:15:04.791Z,316.301
2023-05-15T14:20:11.682Z,305.012
2023-05-15T14:25:04.848Z,232.671
2023-05-15T14:30:04.859Z,198.542
2023-05-15T14:35:04.797Z,191.394
2023-05-15T14:40:04.998Z,187.79500000000002
2023-05-15T14:45:05.012Z,162.629
2023-05-15T14:50:12.474Z,205.17600000000002
2023-05-15T14:55:09.518Z,265.336
2023-05-15T15:00:04.850Z,451.60200000000003
2023-05-15T15:05:04.909Z,355.842
2023-05-15T15:10:04.856Z,1009.005
2023-05-15T15:15:07.943Z,1223.826
2023-05-15T15:20:17.577Z,1045.449
2023-05-15T15:25:04.876Z,1035.462
2023-05-15T15:30:05.014Z,344.082
2023-05-15T15:35:05.001Z,577.397
2023-05-15T15:40:05.063Z,340.378
2023-05-15T15:45:05.085Z,399.748
2023-05-15T15:50:11.641Z,387.195
2023-05-15T15:55:04.854Z,378.998
2023-05-15T16:00:04.903Z,233.614
2023-05-15T16:05:04.957Z,193.272
2023-05-15T16:10:12.180Z,188.592
2023-05-15T16:15:20.625Z,186.311
2023-05-15T16:20:16.400Z,180.828
2023-05-15T16:25:04.948Z,165.357
2023-05-15T16:30:05.010Z,286.709
2023-05-15T16:35:05.071Z,278.712
2023-05-15T16:40:05.089Z,272.911
2023-05-15T16:45:05.013Z,164.91
2023-05-15T16:50:16.588Z,164.207
2023-05-15T16:55:04.949Z,163.90800000000002
2023-05-15T17:00:04.954Z,162.733
2023-05-15T17:05:04.937Z,162.186
2023-05-15T17:10:04.929Z,205.28900000000002
2023-05-15T17:15:05.011Z,339.673
2023-05-15T17:20:14.871Z,345.624
2023-05-15T17:25:05.009Z,321.936
2023-05-15T17:30:05.143Z,268.95
2023-05-15T17:35:05.180Z,222.06
2023-05-15T17:40:05.198Z,222.544
2023-05-15T17:45:04.963Z,217.554
2023-05-15T17:50:20.321Z,213.47
2023-05-15T17:55:05.005Z,225.862
2023-05-15T18:00:05.007Z,1657.998
2023-05-15T18:05:05.053Z,3019.123
2023-05-15T18:10:05.108Z,3155.937
2023-05-15T18:15:05.029Z,1788.281
2023-05-15T18:20:11.027Z,275.697
2023-05-15T18:25:05.155Z,268.193
2023-05-15T18:30:05.172Z,262.54200000000003
2023-05-15T18:35:05.193Z,270.05
2023-05-15T18:40:05.040Z,336.877
2023-05-15T18:45:05.025Z,3734.6510000000003
2023-05-15T18:50:12.273Z,3442.4300000000003
2023-05-15T18:55:05.076Z,1746.991
2023-05-15T19:00:05.034Z,369.26
2023-05-15T19:05:05.055Z,263.543
2023-05-15T19:10:05.065Z,257.297
2023-05-15T19:15:05.084Z,348.86400000000003
2023-05-15T19:20:18.313Z,379.533
2023-05-15T19:25:05.179Z,383.171
2023-05-15T19:30:05.332Z,383.51
2023-05-15T19:35:05.078Z,491.182
2023-05-15T19:40:05.076Z,494.084
2023-05-15T19:45:05.109Z,1634.967
2023-05-15T19:50:14.998Z,3089.6330000000003
2023-05-15T19:55:05.085Z,1139.647
2023-05-15T20:00:05.091Z,352.411
2023-05-15T20:05:05.069Z,352.437
2023-05-15T20:10:05.090Z,340.807
2023-05-15T20:15:05.195Z,327.401
2023-05-15T20:20:20.781Z,400.651
2023-05-15T20:25:05.073Z,443.503
2023-05-15T20:30:05.126Z,436.818
2023-05-15T20:35:05.204Z,378.015
2023-05-15T20:40:05.171Z,750.0840000000001
2023-05-15T20:45:05.117Z,651.735
2023-05-15T20:50:12.012Z,378.648
2023-05-15T20:55:05.150Z,378.725
2023-05-15T21:00:05.180Z,378.058
2023-05-15T21:05:05.263Z,418.387
2023-05-15T21:10:05.341Z,502.669
2023-05-15T21:15:05.124Z,480.967
2023-05-15T21:20:18.832Z,376.786
2023-05-15T21:25:05.192Z,221.50900000000001
2023-05-15T21:30:05.168Z,195.922
2023-05-15T21:35:05.181Z,169.29500000000002
2023-05-15T21:40:05.256Z,193.97
2023-05-15T21:45:06.716Z,186.601
2023-05-15T21:50:15.414Z,186.143
2023-05-15T21:55:05.275Z,306.837
2023-05-15T22:00:05.411Z,298.76
2023-05-15T22:05:05.370Z,290.698
2023-05-15T22:10:05.224Z,192.693
2023-05-15T22:15:05.202Z,158.482
2023-05-15T22:20:20.816Z,157.466
2023-05-15T22:25:05.203Z,159.315
2023-05-15T22:30:05.268Z,159.514
2023-05-15T22:35:05.275Z,159.782
2023-05-15T22:40:05.189Z,265.189
2023-05-15T22:45:05.321Z,301.335
2023-05-15T22:50:10.942Z,295.201
2023-05-15T22:55:05.347Z,220.256
2023-05-15T23:00:05.401Z,183.13400000000001
2023-05-15T23:05:05.195Z,187.55
2023-05-15T23:10:05.318Z,191.73000000000002
2023-05-15T23:15:05.253Z,193.17000000000002
2023-05-15T23:20:19.682Z,190.88400000000001
2023-05-15T23:25:05.301Z,224.114
2023-05-15T23:30:05.366Z,276.761
2023-05-15T23:35:05.302Z,1907.933
2023-05-15T23:40:05.321Z,4909.68
2023-05-15T23:45:05.326Z,4828.247
2023-05-15T23:50:17.532Z,4832.232
2023-05-15T23:55:05.497Z,4833.135
